OTBH/IUD METAR and TAF weather

Enter ICAO airport designator
Station Type Date Time Source
OTBH METAR 2019/10/15 04:10 UTC NOAA

OTBH 150410Z 01005KT 8000 BR CLR 29/23 A2997 RMK AO2A SLP150 WND DATA ESTMD ALSTG/SLP ESTMD $


Station Type Date Time Source
OTBH Decoded METAR 2019/10/15 04:10 UTC NOAA

Station name not available
Oct 15, 2019 - 12:10 AM EDT / 2019.10.15 0410 UTC
Wind: from the N (010 degrees) at 6 MPH (5 KT):0
Visibility: 4 mile(s):0
Sky conditions: clear
Weather: mist
Temperature: 84 F (29 C)
Dew Point: 73 F (23 C)
Relative Humidity: 70%
Pressure (altimeter): 29.97 in. Hg (1014 hPa)
ob: OTBH 150410Z 01005KT 8000 BR CLR 29/23 A2997 RMK AO2A SLP150 WND DATA ESTMD ALSTG/SLP ESTMD
cycle: 4

Station Type Date Time Source
OTBH TAF 2019/10/15 00:06 UTC NOAA

TAF TAF OTBH 150000Z 1500/1606 03006KT 8000 BR SKC QNH2991INS
BECMG 1502/1503 03006KT 6000 BR SKC QNH2994INS
BECMG 1504/1505 06009KT 9000 HZ FEW080 QNH2991INS
BECMG 1511/1512 08012KT 9000 HZ VCTS FEW050CB SCT100 QNH2991INS
BECMG 1514/1515 08012KT 9000 HZ FEW100 QNH2993INS
BECMG 1519/1520 35006KT 9000 HZ SKC QNH2993INS
BECMG 1523/1524 36006KT 8000 BR SKC QNH2994INS
BECMG 1602/1603 02006KT 6000 BR SKC QNH2996INS TX38/1510Z TN26/1502Z

Example: see airport list